createdAt,value
2018-10-07T00:00:25.863Z,998.92
2018-10-07T00:01:26.140Z,998.99
2018-10-07T00:02:26.428Z,998.95
2018-10-07T00:03:26.681Z,998.97
2018-10-07T00:04:26.953Z,998.91
2018-10-07T00:05:27.257Z,998.91
2018-10-07T00:06:27.628Z,998.92
2018-10-07T00:07:28.189Z,998.94
2018-10-07T00:08:27.960Z,998.89
2018-10-07T00:09:28.231Z,999.02
2018-10-07T00:10:28.638Z,998.93
2018-10-07T00:11:29.012Z,998.87
2018-10-07T00:12:29.308Z,998.99
2018-10-07T00:13:29.750Z,998.98
2018-10-07T00:14:30.049Z,999.01
2018-10-07T00:15:30.344Z,999.04
2018-10-07T00:16:30.637Z,999.06
2018-10-07T00:17:31.244Z,999.02
2018-10-07T00:18:31.078Z,999.04
2018-10-07T00:19:31.358Z,999.12
2018-10-07T00:20:31.655Z,999.04
2018-10-07T00:21:31.805Z,999.05
2018-10-07T00:22:32.150Z,999.09
2018-10-07T00:23:32.450Z,999.09
2018-10-07T00:24:32.819Z,999.11
2018-10-07T00:25:33.288Z,999.10
2018-10-07T00:26:41.370Z,999.05
2018-10-07T00:27:33.973Z,999.07
2018-10-07T00:28:34.099Z,999.08
2018-10-07T00:29:34.269Z,999.11
2018-10-07T00:30:34.546Z,999.12
2018-10-07T00:31:34.667Z,999.13
2018-10-07T00:32:34.946Z,999.15
2018-10-07T00:33:35.087Z,999.12
2018-10-07T00:34:35.245Z,999.11
2018-10-07T00:35:35.398Z,999.10
2018-10-07T00:36:35.583Z,999.15
2018-10-07T00:37:35.625Z,999.12
2018-10-07T00:38:35.775Z,999.16
2018-10-07T00:39:35.858Z,999.16
2018-10-07T00:40:35.991Z,999.23
2018-10-07T00:41:36.149Z,999.25
2018-10-07T00:42:36.230Z,999.22
2018-10-07T00:43:36.299Z,999.21
2018-10-07T00:44:36.381Z,999.23
2018-10-07T00:45:36.457Z,999.24
2018-10-07T00:46:36.601Z,999.20
2018-10-07T00:47:36.707Z,999.14
2018-10-07T00:48:36.759Z,999.20
2018-10-07T00:49:36.910Z,999.23
2018-10-07T00:50:37.067Z,999.22
2018-10-07T00:51:37.183Z,999.16
2018-10-07T00:52:37.297Z,999.25
2018-10-07T00:53:37.396Z,999.25
2018-10-07T00:54:37.455Z,999.21
2018-10-07T00:55:37.544Z,999.22
2018-10-07T00:56:37.627Z,999.27
2018-10-07T00:57:37.704Z,999.35
2018-10-07T00:58:37.789Z,999.35
2018-10-07T00:59:37.873Z,999.32
2018-10-07T01:00:37.980Z,999.33
2018-10-07T01:01:38.064Z,999.39
2018-10-07T01:02:38.177Z,999.35
2018-10-07T01:03:38.278Z,999.40
2018-10-07T01:04:38.429Z,999.37
2018-10-07T01:05:38.497Z,999.40
2018-10-07T01:06:38.385Z,999.42
2018-10-07T01:07:38.974Z,999.26
2018-10-07T01:08:38.992Z,999.34
2018-10-07T01:09:39.012Z,999.33
2018-10-07T01:10:39.104Z,999.38
2018-10-07T01:11:39.311Z,999.29
2018-10-07T01:12:39.287Z,999.38
2018-10-07T01:13:39.642Z,999.32
2018-10-07T01:14:39.910Z,999.39
2018-10-07T01:15:40.432Z,999.36
2018-10-07T01:16:40.240Z,999.34
2018-10-07T01:17:40.827Z,999.31
2018-10-07T01:18:40.607Z,999.41
2018-10-07T01:19:40.927Z,999.30
2018-10-07T01:20:41.211Z,999.30
2018-10-07T01:21:41.499Z,999.30
2018-10-07T01:22:41.860Z,999.36
2018-10-07T01:23:42.377Z,999.38
2018-10-07T01:24:42.177Z,999.34
2018-10-07T01:25:42.577Z,999.39
2018-10-07T01:26:43.066Z,999.42
2018-10-07T01:27:43.676Z,999.33
2018-10-07T01:28:43.458Z,999.41
2018-10-07T01:29:43.745Z,999.38
2018-10-07T01:30:44.085Z,999.41
2018-10-07T01:31:44.399Z,999.40
2018-10-07T01:32:44.745Z,999.43
2018-10-07T01:33:45.019Z,999.50
2018-10-07T01:34:45.326Z,999.45
2018-10-07T01:35:45.597Z,999.42
2018-10-07T01:36:45.896Z,999.51
2018-10-07T01:37:46.280Z,999.44
2018-10-07T01:38:46.636Z,999.50
2018-10-07T01:39:46.937Z,999.46
2018-10-07T01:40:47.233Z,999.52
2018-10-07T01:41:47.571Z,999.46
2018-10-07T01:42:47.891Z,999.48
2018-10-07T01:43:48.508Z,999.52
2018-10-07T01:44:48.752Z,999.41
2018-10-07T01:46:48.884Z,999.42
2018-10-07T01:47:48.971Z,999.46
2018-10-07T01:48:49.112Z,999.48
2018-10-07T01:49:49.244Z,999.48
2018-10-07T01:50:49.387Z,999.47
2018-10-07T01:51:49.591Z,999.44
2018-10-07T01:52:49.804Z,999.44
2018-10-07T01:53:49.941Z,999.43
2018-10-07T01:54:50.134Z,999.43
2018-10-07T01:55:50.295Z,999.42
2018-10-07T01:56:50.493Z,999.45
2018-10-07T01:57:50.660Z,999.49
2018-10-07T01:58:50.848Z,999.49
2018-10-07T01:59:50.991Z,999.40
2018-10-07T02:00:51.142Z,999.42
2018-10-07T02:01:51.221Z,999.38
2018-10-07T02:02:51.355Z,999.44
2018-10-07T02:03:51.474Z,999.41
2018-10-07T02:04:51.599Z,999.42
2018-10-07T02:05:51.710Z,999.38
2018-10-07T02:06:51.827Z,999.45
2018-10-07T02:07:51.931Z,999.42
2018-10-07T02:08:52.048Z,999.43
2018-10-07T02:09:52.153Z,999.49
2018-10-07T02:10:52.260Z,999.52
2018-10-07T02:11:52.412Z,999.53
2018-10-07T02:12:52.519Z,999.50
2018-10-07T02:13:52.663Z,999.47
2018-10-07T02:14:52.669Z,999.55
2018-10-07T02:15:52.733Z,999.56
2018-10-07T02:16:52.809Z,999.58
2018-10-07T02:17:52.898Z,999.49
2018-10-07T02:18:52.986Z,999.53
2018-10-07T02:19:53.054Z,999.51
2018-10-07T02:20:53.137Z,999.60
2018-10-07T02:21:53.215Z,999.52
2018-10-07T02:22:53.306Z,999.55
2018-10-07T02:23:53.400Z,999.52
2018-10-07T02:24:53.496Z,999.50
2018-10-07T02:25:53.577Z,999.50
2018-10-07T02:26:53.398Z,999.43
2018-10-07T02:27:54.020Z,999.52
2018-10-07T02:28:54.127Z,999.51
2018-10-07T02:29:54.213Z,999.49
2018-10-07T02:30:54.471Z,999.48
2018-10-07T02:31:54.496Z,999.57
2018-10-07T02:32:54.742Z,999.48
2018-10-07T02:33:54.731Z,999.51
2018-10-07T02:34:55.018Z,999.57
2018-10-07T02:35:55.508Z,999.56
2018-10-07T02:36:55.781Z,999.59
2018-10-07T02:37:56.321Z,999.65
2018-10-07T02:38:56.144Z,999.64
2018-10-07T02:39:56.635Z,999.67
2018-10-07T02:40:56.915Z,999.68
2018-10-07T02:41:57.198Z,999.67
2018-10-07T02:42:57.463Z,999.70
2018-10-07T02:43:58.031Z,999.72
2018-10-07T02:44:57.808Z,999.78
2018-10-07T02:45:58.092Z,999.73
2018-10-07T02:46:58.415Z,999.74
2018-10-07T02:47:59.142Z,999.84
2018-10-07T02:48:58.911Z,999.78
2018-10-07T02:49:59.425Z,999.82
2018-10-07T02:50:59.482Z,999.82
2018-10-07T02:51:59.752Z,999.75
2018-10-07T02:53:00.395Z,999.82
2018-10-07T02:54:00.270Z,999.84
2018-10-07T02:55:00.747Z,999.81
2018-10-07T02:56:01.136Z,999.78
2018-10-07T02:57:01.689Z,999.83
2018-10-07T02:58:01.801Z,999.85
2018-10-07T02:59:01.978Z,999.79
2018-10-07T03:00:02.513Z,999.82
2018-10-07T03:01:02.606Z,999.83
2018-10-07T03:02:02.344Z,999.80
2018-10-07T03:03:03.029Z,999.75
2018-10-07T03:04:03.132Z,999.73
2018-10-07T03:05:03.119Z,999.75
2018-10-07T03:06:03.910Z,999.73
2018-10-07T03:07:04.207Z,999.76
2018-10-07T03:08:04.511Z,999.74
2018-10-07T03:09:05.078Z,999.78
2018-10-07T03:10:05.413Z,999.79
2018-10-07T03:11:05.683Z,999.80
2018-10-07T03:12:05.861Z,999.83
2018-10-07T03:13:06.110Z,999.71
2018-10-07T03:14:06.210Z,999.70
2018-10-07T03:15:06.360Z,999.79
2018-10-07T03:16:06.506Z,999.81
2018-10-07T03:17:06.638Z,999.87
2018-10-07T03:18:06.802Z,999.85
2018-10-07T03:19:06.865Z,999.91
2018-10-07T03:20:06.799Z,999.88
2018-10-07T03:21:07.401Z,999.88
2018-10-07T03:22:07.471Z,999.81
2018-10-07T03:23:07.543Z,999.79
2018-10-07T03:24:07.472Z,999.72
2018-10-07T03:25:08.047Z,999.79
2018-10-07T03:26:07.879Z,999.75
2018-10-07T03:27:08.474Z,999.77
2018-10-07T03:28:08.533Z,999.73
2018-10-07T03:29:08.604Z,999.78
2018-10-07T03:30:08.701Z,999.92
2018-10-07T03:31:08.496Z,1000.00
2018-10-07T03:32:09.147Z,1000.11
2018-10-07T03:33:09.177Z,1000.12
2018-10-07T03:34:09.498Z,1000.29
2018-10-07T03:35:10.033Z,1000.33
2018-10-07T03:36:10.606Z,1000.31
2018-10-07T03:37:10.794Z,1000.25
2018-10-07T03:38:10.851Z,1000.30
2018-10-07T03:39:10.942Z,1000.35
2018-10-07T03:40:11.030Z,1000.40
2018-10-07T03:41:11.145Z,1000.33
2018-10-07T03:42:10.936Z,1000.41
2018-10-07T03:43:11.384Z,1000.25
2018-10-07T03:44:11.308Z,1000.28
2018-10-07T03:45:11.677Z,1000.20
2018-10-07T03:46:12.073Z,1000.14
2018-10-07T03:47:12.352Z,1000.28
2018-10-07T03:48:12.973Z,1000.29
2018-10-07T03:49:12.990Z,1000.35
2018-10-07T03:50:12.790Z,1000.33
2018-10-07T03:51:13.209Z,1000.34
2018-10-07T03:52:13.182Z,1000.28
2018-10-07T03:53:13.513Z,1000.22
2018-10-07T03:54:13.854Z,1000.21
2018-10-07T03:55:14.456Z,1000.28
2018-10-07T03:56:14.214Z,1000.37
2018-10-07T03:57:15.048Z,1000.37
2018-10-07T03:58:18.502Z,1000.39
2018-10-07T03:59:15.127Z,1000.40
2018-10-07T04:00:15.108Z,1000.33
2018-10-07T04:01:15.503Z,1000.39
2018-10-07T04:02:15.840Z,1000.34
2018-10-07T04:03:15.599Z,1000.34
2018-10-07T04:04:16.055Z,1000.37
2018-10-07T04:05:16.643Z,1000.39
2018-10-07T04:06:16.417Z,1000.36
2018-10-07T04:07:16.783Z,1000.37
2018-10-07T04:08:17.106Z,1000.37
2018-10-07T04:09:17.367Z,1000.24
2018-10-07T04:10:17.932Z,1000.37
2018-10-07T04:11:18.281Z,1000.37
2018-10-07T04:12:18.293Z,1000.41
2018-10-07T04:13:18.698Z,1000.43
2018-10-07T04:14:19.014Z,1000.46
2018-10-07T04:15:19.233Z,1000.43
2018-10-07T04:16:19.592Z,1000.37
2018-10-07T04:17:19.775Z,1000.35
2018-10-07T04:18:20.038Z,1000.37
2018-10-07T04:19:20.398Z,1000.39
2018-10-07T04:20:23.287Z,1000.44
2018-10-07T04:21:20.745Z,1000.51
2018-10-07T04:22:20.908Z,1000.56
2018-10-07T04:23:21.059Z,1000.65
2018-10-07T04:24:21.234Z,1000.66
2018-10-07T04:25:21.374Z,1000.66
2018-10-07T04:26:21.867Z,1000.68
2018-10-07T04:27:21.533Z,1000.53
2018-10-07T04:28:21.624Z,1000.54
2018-10-07T04:29:21.949Z,1000.46
2018-10-07T04:30:21.998Z,1000.53
2018-10-07T04:31:22.114Z,1000.53
2018-10-07T04:32:22.505Z,1000.58
2018-10-07T04:33:22.574Z,1000.74
2018-10-07T04:34:22.629Z,1000.72
2018-10-07T04:35:22.767Z,1000.76
2018-10-07T04:36:22.853Z,1000.78
2018-10-07T04:37:23.051Z,1000.78
2018-10-07T04:38:23.126Z,1000.86
2018-10-07T04:39:23.229Z,1000.86
2018-10-07T04:40:23.314Z,1000.84
2018-10-07T04:41:23.389Z,1000.71
2018-10-07T04:42:23.475Z,1000.71
2018-10-07T04:43:23.724Z,1000.69
2018-10-07T04:44:23.817Z,1000.71
2018-10-07T04:45:23.656Z,1000.80
2018-10-07T04:46:24.582Z,1000.89
2018-10-07T04:47:24.778Z,1000.92
2018-10-07T04:48:24.705Z,1000.82
2018-10-07T04:49:24.992Z,1000.86
2018-10-07T04:50:25.274Z,1000.81
2018-10-07T04:51:25.792Z,1000.82
2018-10-07T04:52:25.703Z,1000.81
2018-10-07T04:53:25.698Z,1000.85
2018-10-07T04:54:26.493Z,1000.85
2018-10-07T04:55:26.528Z,1000.91
2018-10-07T04:56:26.771Z,1000.84
2018-10-07T04:57:27.106Z,1000.83
2018-10-07T04:58:27.049Z,1000.87
2018-10-07T04:59:30.338Z,1000.94
2018-10-07T05:00:27.686Z,1000.90
2018-10-07T05:02:28.213Z,1000.94
2018-10-07T05:03:28.677Z,1000.87
2018-10-07T05:04:28.769Z,1001.00
2018-10-07T05:05:29.253Z,1000.98
2018-10-07T05:06:29.576Z,1000.97
2018-10-07T05:07:29.457Z,1000.96
2018-10-07T05:08:29.754Z,1001.04
2018-10-07T05:09:30.271Z,1001.03
2018-10-07T05:10:30.284Z,1001.06
2018-10-07T05:11:30.589Z,1001.05
2018-10-07T05:12:31.110Z,1001.04
2018-10-07T05:13:34.257Z,1001.07
2018-10-07T05:14:31.742Z,1001.04
2018-10-07T05:16:35.645Z,1001.08
2018-10-07T05:17:32.319Z,1001.10
2018-10-07T05:18:32.690Z,1001.13
2018-10-07T05:19:33.095Z,1001.20
2018-10-07T05:20:33.737Z,1001.22
2018-10-07T05:21:33.834Z,1001.26
2018-10-07T05:22:33.929Z,1001.24
2018-10-07T05:23:34.056Z,1001.28
2018-10-07T05:24:34.175Z,1001.27
2018-10-07T05:25:34.375Z,1001.33
2018-10-07T05:26:34.531Z,1001.27
2018-10-07T05:27:34.702Z,1001.25
2018-10-07T05:28:34.842Z,1001.31
2018-10-07T05:29:35.010Z,1001.33
2018-10-07T05:30:35.137Z,1001.38
2018-10-07T05:31:35.409Z,1001.32
2018-10-07T05:32:35.560Z,1001.27
2018-10-07T05:33:35.805Z,1001.33
2018-10-07T05:34:35.825Z,1001.35
2018-10-07T05:35:35.984Z,1001.37
2018-10-07T05:36:36.123Z,1001.44
2018-10-07T05:37:36.213Z,1001.45
2018-10-07T05:38:36.265Z,1001.38
2018-10-07T05:39:36.377Z,1001.44
2018-10-07T05:40:36.464Z,1001.41
2018-10-07T05:41:36.543Z,1001.46
2018-10-07T05:42:36.645Z,1001.47
2018-10-07T05:43:36.685Z,1001.50
2018-10-07T05:44:36.974Z,1001.43
2018-10-07T05:45:36.857Z,1001.52
2018-10-07T05:46:36.984Z,1001.55
2018-10-07T05:47:37.083Z,1001.62
2018-10-07T05:48:37.100Z,1001.57
2018-10-07T05:49:37.213Z,1001.56
2018-10-07T05:50:37.344Z,1001.60
2018-10-07T05:51:37.443Z,1001.61
2018-10-07T05:52:37.507Z,1001.67
2018-10-07T05:53:37.579Z,1001.72
2018-10-07T05:54:37.666Z,1001.69
2018-10-07T05:55:37.762Z,1001.79
2018-10-07T05:56:37.837Z,1001.75
2018-10-07T05:57:37.917Z,1001.74
2018-10-07T05:58:37.994Z,1001.83
2018-10-07T05:59:38.106Z,1001.87
2018-10-07T06:00:38.229Z,1001.87
2018-10-07T06:01:38.355Z,1001.84
2018-10-07T06:02:38.419Z,1001.88
2018-10-07T06:03:38.642Z,1001.89
2018-10-07T06:04:38.862Z,1001.96
2018-10-07T06:05:38.852Z,1001.98
2018-10-07T06:06:38.854Z,1002.00
2018-10-07T06:07:39.412Z,1002.04
2018-10-07T06:08:39.419Z,1002.16
2018-10-07T06:09:39.628Z,1002.21
2018-10-07T06:10:39.387Z,1002.23
2018-10-07T06:11:39.748Z,1002.22
2018-10-07T06:12:40.039Z,1002.23
2018-10-07T06:13:40.467Z,1002.22
2018-10-07T06:14:41.006Z,1002.20
2018-10-07T06:15:41.184Z,1002.29
2018-10-07T06:16:41.418Z,1002.28
2018-10-07T06:17:41.335Z,1002.34
2018-10-07T06:18:41.662Z,1002.33
2018-10-07T06:19:42.128Z,1002.33
2018-10-07T06:20:42.417Z,1002.38
2018-10-07T12:22:07.301Z,1002.47
2018-10-07T12:23:07.085Z,1005.86
2018-10-07T12:24:07.244Z,1005.88
2018-10-07T12:25:10.164Z,1005.88
2018-10-07T12:26:07.738Z,1005.88
2018-10-07T12:27:07.854Z,1005.88
2018-10-07T12:28:08.308Z,1005.92
2018-10-07T12:29:08.620Z,1005.90
2018-10-07T12:30:09.105Z,1005.92
2018-10-07T12:31:08.935Z,1005.89
2018-10-07T12:32:09.652Z,1006.03
2018-10-07T12:33:09.665Z,1005.98
2018-10-07T12:34:10.562Z,1005.96
2018-10-07T12:35:10.346Z,1005.95
2018-10-07T12:36:10.132Z,1005.97
2018-10-07T12:37:11.284Z,1006.08
2018-10-07T12:38:10.650Z,1006.07
2018-10-07T12:39:11.009Z,1005.99
2018-10-07T12:40:11.453Z,1006.13
2018-10-07T12:41:11.973Z,1006.14
2018-10-07T12:42:12.277Z,1006.06
2018-10-07T12:43:12.660Z,1006.11
2018-10-07T12:44:13.679Z,1006.13
2018-10-07T12:45:13.544Z,1006.02
2018-10-07T12:46:13.414Z,1006.12
2018-10-07T12:47:13.742Z,1005.95
2018-10-07T12:48:14.016Z,1006.14
2018-10-07T12:49:14.491Z,1006.09
2018-10-07T12:50:15.116Z,1006.08
2018-10-07T12:51:14.903Z,1006.16
2018-10-07T12:53:15.745Z,1006.21
2018-10-07T12:54:15.721Z,1006.34
2018-10-07T12:55:16.275Z,1006.26
2018-10-07T12:56:16.250Z,1006.24
2018-10-07T12:57:16.539Z,1006.19
2018-10-07T12:58:16.844Z,1006.24
2018-10-07T12:59:17.140Z,1006.24
2018-10-07T13:00:17.816Z,1006.31
2018-10-07T13:01:17.595Z,1006.46
2018-10-07T13:02:17.901Z,1006.34
2018-10-07T13:03:18.493Z,1006.47
2018-10-07T13:04:18.602Z,1006.37
2018-10-07T13:05:18.822Z,1006.45
2018-10-07T13:06:18.964Z,1006.36
2018-10-07T13:07:19.109Z,1006.44
2018-10-07T13:08:19.250Z,1006.40
2018-10-07T13:09:19.458Z,1006.42
2018-10-07T13:10:19.576Z,1006.41
2018-10-07T13:11:19.697Z,1006.50
2018-10-07T13:12:19.839Z,1006.41
2018-10-07T13:13:20.029Z,1006.48
2018-10-07T13:14:20.240Z,1006.43
2018-10-07T13:15:20.423Z,1006.47
2018-10-07T13:16:20.591Z,1006.41
2018-10-07T13:17:20.766Z,1006.44
2018-10-07T13:18:20.898Z,1006.51
2018-10-07T13:19:21.240Z,1006.53
2018-10-07T13:20:21.217Z,1006.48
2018-10-07T13:21:21.273Z,1006.51
2018-10-07T13:22:21.400Z,1006.53
2018-10-07T13:23:21.496Z,1006.57
2018-10-07T13:24:21.700Z,1006.59
2018-10-07T13:25:21.791Z,1006.52
2018-10-07T13:27:21.884Z,1006.55
2018-10-07T13:28:22.027Z,1006.60
2018-10-07T13:29:22.138Z,1006.63
2018-10-07T13:30:22.259Z,1006.80
2018-10-07T13:31:22.326Z,1006.77
2018-10-07T13:32:22.411Z,1006.60
2018-10-07T13:33:22.486Z,1006.74
2018-10-07T13:34:22.551Z,1006.72
2018-10-07T13:35:22.666Z,1006.70
2018-10-07T13:36:22.775Z,1006.74
2018-10-07T13:37:22.845Z,1006.76
2018-10-07T13:38:22.937Z,1006.78
2018-10-07T13:39:23.248Z,1006.75
2018-10-07T13:40:23.230Z,1006.83
2018-10-07T13:41:23.340Z,1006.86
2018-10-07T13:42:23.443Z,1006.84
2018-10-07T13:43:23.515Z,1006.87
2018-10-07T13:44:23.789Z,1006.89
2018-10-07T13:45:24.679Z,1006.76
2018-10-07T13:46:24.519Z,1006.87
2018-10-07T13:47:24.682Z,1006.87
2018-10-07T13:48:24.997Z,1006.86
2018-10-07T13:49:25.254Z,1006.91
2018-10-07T13:50:25.564Z,1006.85
2018-10-07T13:51:25.904Z,1006.91
2018-10-07T13:52:26.223Z,1006.83
2018-10-07T13:53:26.607Z,1006.96
2018-10-07T13:54:26.836Z,1006.93
2018-10-07T13:55:27.124Z,1006.98
2018-10-07T13:56:27.382Z,1006.96
2018-10-07T13:57:27.883Z,1006.91
2018-10-07T13:58:28.178Z,1006.83
2018-10-07T13:59:28.468Z,1006.79
2018-10-07T14:00:32.290Z,1006.74
2018-10-07T14:01:29.212Z,1006.81
2018-10-07T14:02:29.503Z,1006.87
2018-10-07T14:03:29.889Z,1006.89
2018-10-07T14:04:30.088Z,1006.98
2018-10-07T14:05:30.452Z,1006.89
2018-10-07T14:06:30.725Z,1006.85
2018-10-07T14:07:30.996Z,1006.89
2018-10-07T14:08:31.271Z,1006.89
2018-10-07T14:09:31.545Z,1006.89
2018-10-07T14:10:31.974Z,1006.98
2018-10-07T14:11:32.386Z,1006.97
2018-10-07T14:12:32.639Z,1007.02
2018-10-07T14:13:33.189Z,1007.02
2018-10-07T14:14:33.161Z,1007.00
2018-10-07T14:15:33.752Z,1006.98
2018-10-07T14:16:33.931Z,1007.10
2018-10-07T14:17:34.086Z,1007.02
2018-10-07T14:18:34.260Z,1007.09
2018-10-07T14:19:34.397Z,1007.06
2018-10-07T14:20:34.627Z,1007.17
2018-10-07T14:21:34.824Z,1007.11
2018-10-07T14:22:35.085Z,1007.14
2018-10-07T14:23:35.290Z,1007.19
2018-10-07T14:24:35.543Z,1007.19
2018-10-07T14:25:35.707Z,1007.19
2018-10-07T14:26:35.894Z,1007.36
2018-10-07T14:27:36.049Z,1007.21
2018-10-07T14:28:36.255Z,1007.35
2018-10-07T14:29:36.357Z,1007.26
2018-10-07T14:30:36.476Z,1007.35
2018-10-07T14:31:36.543Z,1007.28
2018-10-07T14:32:36.666Z,1007.36
2018-10-07T14:33:36.775Z,1007.37
2018-10-07T14:34:36.912Z,1007.43
2018-10-07T14:35:36.705Z,1007.37
2018-10-07T14:36:37.299Z,1007.32
2018-10-07T14:37:37.558Z,1007.38
2018-10-07T14:38:37.644Z,1007.33
2018-10-07T14:39:37.710Z,1007.41
2018-10-07T14:40:37.777Z,1007.43
2018-10-07T14:41:37.870Z,1007.49
2018-10-07T14:42:37.944Z,1007.45
2018-10-07T14:43:38.023Z,1007.46
2018-10-07T14:44:38.108Z,1007.45
2018-10-07T14:45:38.178Z,1007.48
2018-10-07T14:46:38.305Z,1007.46
2018-10-07T14:47:38.373Z,1007.46
2018-10-07T14:48:38.500Z,1007.52
2018-10-07T14:49:38.614Z,1007.42
2018-10-07T14:50:38.712Z,1007.46
2018-10-07T14:51:38.848Z,1007.51
2018-10-07T14:52:38.873Z,1007.59
2018-10-07T14:53:38.989Z,1007.51
2018-10-07T14:54:39.080Z,1007.53
2018-10-07T14:55:39.390Z,1007.53
2018-10-07T14:56:39.453Z,1007.54
2018-10-07T14:57:39.573Z,1007.60
2018-10-07T14:58:39.621Z,1007.48
2018-10-07T14:59:40.005Z,1007.54
2018-10-07T15:00:40.331Z,1007.50
2018-10-07T15:01:40.594Z,1007.49
2018-10-07T15:02:41.034Z,1007.54
2018-10-07T15:03:41.308Z,1007.38
2018-10-07T15:04:41.587Z,1007.47
2018-10-07T15:05:41.875Z,1007.48
2018-10-07T15:06:42.356Z,1007.47
2018-10-07T15:07:42.655Z,1007.54
2018-10-07T15:08:43.066Z,1007.59
2018-10-07T15:09:43.412Z,1007.50
2018-10-07T15:10:43.689Z,1007.37
2018-10-07T15:11:44.280Z,1007.52
2018-10-07T15:12:44.081Z,1007.37
2018-10-07T15:13:44.497Z,1007.40
2018-10-07T15:14:45.025Z,1007.39
2018-10-07T15:15:44.799Z,1007.40
2018-10-07T15:16:45.243Z,1007.35
2018-10-07T15:17:45.516Z,1007.41
2018-10-07T15:18:45.816Z,1007.46
2018-10-07T15:19:46.083Z,1007.41
2018-10-07T15:20:46.363Z,1007.39
2018-10-07T15:21:46.628Z,1007.35
2018-10-07T15:22:47.041Z,1007.45
2018-10-07T15:23:47.382Z,1007.40
2018-10-07T15:24:47.600Z,1007.33
2018-10-07T15:25:47.901Z,1007.27
2018-10-07T15:26:48.456Z,1007.39
2018-10-07T15:27:48.675Z,1007.25
2018-10-07T15:28:48.772Z,1007.32
2018-10-07T15:29:48.933Z,1007.27
2018-10-07T15:30:49.059Z,1007.26
2018-10-07T15:31:49.199Z,1007.27
2018-10-07T15:32:49.388Z,1007.26
2018-10-07T15:33:49.507Z,1007.20
2018-10-07T15:34:49.641Z,1007.22
2018-10-07T15:35:49.893Z,1007.21
2018-10-07T15:36:49.970Z,1007.30
2018-10-07T15:37:50.116Z,1007.30
2018-10-07T15:38:50.263Z,1007.23
2018-10-07T15:39:50.478Z,1007.30
2018-10-07T15:40:50.714Z,1007.34
2018-10-07T15:41:50.884Z,1007.30
2018-10-07T15:42:50.995Z,1007.26
2018-10-07T15:43:51.049Z,1007.29
2018-10-07T15:44:51.166Z,1007.23
2018-10-07T15:45:51.279Z,1007.31
2018-10-07T15:46:51.443Z,1007.27
2018-10-07T15:47:51.568Z,1007.35
2018-10-07T15:48:51.661Z,1007.31
2018-10-07T15:49:51.836Z,1007.29
2018-10-07T15:50:51.939Z,1007.33
2018-10-07T15:51:52.069Z,1007.45
2018-10-07T15:52:52.184Z,1007.30
2018-10-07T15:53:52.283Z,1007.50
2018-10-07T15:54:52.423Z,1007.45
2018-10-07T15:55:52.575Z,1007.37
2018-10-07T15:56:52.656Z,1007.42
2018-10-07T15:57:52.693Z,1007.32
2018-10-07T15:58:52.755Z,1007.36
2018-10-07T15:59:52.832Z,1007.36
2018-10-07T16:00:52.939Z,1007.36
2018-10-07T16:01:53.001Z,1007.41
2018-10-07T16:02:53.121Z,1007.49
2018-10-07T16:03:53.230Z,1007.44
2018-10-07T16:04:53.310Z,1007.41
2018-10-07T16:05:53.484Z,1007.45
2018-10-07T16:06:53.709Z,1007.37
2018-10-07T16:07:53.811Z,1007.45
2018-10-07T16:08:53.991Z,1007.48
2018-10-07T16:09:53.910Z,1007.48
2018-10-07T16:10:54.315Z,1007.49
2018-10-07T16:11:54.774Z,1007.51
2018-10-07T16:12:55.179Z,1007.35
2018-10-07T16:13:55.455Z,1007.55
2018-10-07T16:14:56.192Z,1007.46
2018-10-07T16:15:55.907Z,1007.45
2018-10-07T16:16:56.230Z,1007.62
2018-10-07T16:17:56.539Z,1007.46
2018-10-07T16:18:56.915Z,1007.62
2018-10-07T16:19:57.429Z,1007.64
2018-10-07T16:20:57.236Z,1007.71
2018-10-07T16:21:57.571Z,1007.68
2018-10-07T16:22:57.891Z,1007.75
2018-10-07T16:23:58.171Z,1007.72
2018-10-07T16:24:58.461Z,1007.67
2018-10-07T16:25:59.134Z,1007.75
2018-10-07T16:26:58.834Z,1007.75
2018-10-07T16:27:59.222Z,1007.82
2018-10-07T16:28:59.519Z,1007.83
2018-10-07T16:29:59.786Z,1007.84
2018-10-07T16:31:00.260Z,1007.87
2018-10-07T16:32:00.543Z,1007.84
2018-10-07T16:33:01.009Z,1007.82
2018-10-07T16:34:01.540Z,1007.84
2018-10-07T16:35:01.560Z,1007.89
2018-10-07T16:36:01.646Z,1007.98
2018-10-07T16:37:01.458Z,1008.00
2018-10-07T16:38:01.960Z,1007.95
2018-10-07T16:39:02.367Z,1007.97
2018-10-07T16:40:02.737Z,1008.02
2018-10-07T16:41:02.831Z,1007.92
2018-10-07T16:42:02.760Z,1007.94
2018-10-07T16:43:03.421Z,1007.95
2018-10-07T16:44:03.706Z,1007.93
2018-10-07T16:45:03.973Z,1008.06
2018-10-07T16:46:04.093Z,1008.08
2018-10-07T16:47:04.309Z,1008.06
2018-10-07T16:48:04.433Z,1008.04
2018-10-07T16:49:04.551Z,1008.07
2018-10-07T16:50:04.663Z,1008.11
2018-10-07T16:51:04.771Z,1007.97
2018-10-07T16:52:04.937Z,1008.04
2018-10-07T16:53:05.120Z,1008.08
2018-10-07T16:54:05.315Z,1008.17
2018-10-07T16:55:05.474Z,1008.13
2018-10-07T16:56:05.625Z,1008.10
2018-10-07T16:57:09.975Z,1008.18
2018-10-07T16:58:06.120Z,1008.04
2018-10-07T16:59:06.280Z,1008.15
2018-10-07T17:00:06.358Z,1008.17
2018-10-07T17:01:06.465Z,1008.22
2018-10-07T17:02:06.571Z,1008.23
2018-10-07T17:03:06.713Z,1008.21
2018-10-07T17:04:06.981Z,1008.24
2018-10-07T17:05:06.964Z,1008.24
2018-10-07T17:06:07.068Z,1008.25
2018-10-07T17:07:07.188Z,1008.20
2018-10-07T17:08:07.360Z,1008.34
2018-10-07T17:09:07.466Z,1008.35
2018-10-07T17:10:07.684Z,1008.35
2018-10-07T17:11:07.762Z,1008.35
2018-10-07T17:12:07.818Z,1008.40
2018-10-07T17:13:08.082Z,1008.36
2018-10-07T17:14:07.964Z,1008.33
2018-10-07T17:15:08.055Z,1008.38
2018-10-07T17:16:08.415Z,1008.36
2018-10-07T17:17:08.362Z,1008.34
2018-10-07T17:18:08.978Z,1008.31
2018-10-07T17:19:09.027Z,1008.40
2018-10-07T17:20:08.965Z,1008.36
2018-10-07T17:21:09.393Z,1008.36
2018-10-07T17:22:09.928Z,1008.41
2018-10-07T17:23:09.942Z,1008.39
2018-10-07T17:24:10.375Z,1008.47
2018-10-07T17:25:10.519Z,1008.38
2018-10-07T17:26:10.449Z,1008.48
2018-10-07T17:27:10.910Z,1008.48
2018-10-07T17:28:11.264Z,1008.47
2018-10-07T17:29:11.084Z,1008.51
2018-10-07T17:30:11.365Z,1008.48
2018-10-07T17:31:11.712Z,1008.55
2018-10-07T17:32:12.121Z,1008.59
2018-10-07T17:33:12.472Z,1008.59
2018-10-07T17:34:12.752Z,1008.63
2018-10-07T17:35:12.992Z,1008.66
2018-10-07T17:36:13.296Z,1008.68
2018-10-07T17:37:13.624Z,1008.65
2018-10-07T17:38:13.904Z,1008.58
2018-10-07T17:39:14.267Z,1008.75
2018-10-07T17:40:14.970Z,1008.75
2018-10-07T17:41:14.901Z,1008.82
2018-10-07T17:42:15.167Z,1008.84
2018-10-07T17:43:15.639Z,1008.86
2018-10-07T17:44:15.963Z,1008.72
2018-10-07T17:45:16.526Z,1008.80
2018-10-07T17:46:16.336Z,1008.80
2018-10-07T17:47:16.549Z,1008.93
2018-10-07T17:48:16.964Z,1008.91
2018-10-07T17:49:17.187Z,1008.95
2018-10-07T17:50:17.779Z,1008.99
2018-10-07T17:51:17.591Z,1008.90
2018-10-07T17:52:17.944Z,1009.02
2018-10-07T17:53:18.550Z,1008.98
2018-10-07T17:54:18.722Z,1008.99
2018-10-07T17:55:18.862Z,1008.93
2018-10-07T17:56:19.063Z,1009.01
2018-10-07T17:57:19.267Z,1008.92
2018-10-07T17:58:19.399Z,1008.97
2018-10-07T17:59:19.529Z,1009.02
2018-10-07T18:00:19.637Z,1008.98
2018-10-07T18:01:19.788Z,1008.97
2018-10-07T18:02:19.942Z,1009.15
2018-10-07T18:03:20.231Z,1009.10
2018-10-07T18:04:20.240Z,1009.06
2018-10-07T18:05:20.391Z,1009.04
2018-10-07T18:06:20.506Z,1009.10
2018-10-07T18:07:20.656Z,1009.09
2018-10-07T18:08:20.792Z,1009.12
2018-10-07T18:09:20.899Z,1009.12
2018-10-07T18:10:20.987Z,1009.12
2018-10-07T18:11:21.081Z,1009.13
2018-10-07T18:12:21.179Z,1009.15
2018-10-07T18:13:21.272Z,1009.17
2018-10-07T18:14:21.453Z,1009.22
2018-10-07T18:15:21.518Z,1009.11
2018-10-07T18:16:21.621Z,1009.17
2018-10-07T18:17:21.781Z,1009.22
2018-10-07T18:18:21.927Z,1009.24
2018-10-07T18:19:22.051Z,1009.08
2018-10-07T18:20:22.080Z,1009.27